This is the latest recevied weather packets stored in our database for station/object HS2LXA-WX. If no packets are shown the sender has not sent any weather packets the latest 10 day(s).
| Time | Temp. | Humidity | Pressure | Rain* | Wind** | Luminosity | Snow |
|---|---|---|---|---|---|---|---|
| 1777721557 | 33.33° C | 63% | 1013.2 hPa | 0 mm | - | - | - |
| 1777720954 | 34.44° C | 59% | 1013.2 hPa | 0 mm | - | - | - |
| 1777720288 | 34.44° C | 60% | 1013.2 hPa | 0 mm | - | - | - |
| 1777719098 | 35° C | 59% | 1013.1 hPa | 0 mm | - | - | - |
| 1777718223 | 35° C | 60% | 1013.1 hPa | 0 mm | - | - | - |
| 1777717624 | 35° C | 62% | 1013.1 hPa | 0 mm | - | - | - |
| 1777717006 | 33.89° C | 63% | 1013.2 hPa | 0 mm | - | - | - |
| 1777716404 | 34.44° C | 62% | 1013.2 hPa | 0 mm | - | - | - |
| 1777715804 | 34.44° C | 63% | 1013.2 hPa | 0 mm | - | - | - |
| 1777715204 | 33.33° C | 64% | 1013.1 hPa | 0 mm | - | - | - |
| 1777714604 | 34.44° C | 62% | 1013.1 hPa | 0 mm | - | - | - |
| 1777713954 | 35° C | 60% | 1013.2 hPa | 0 mm | - | - | - |
| 1777713352 | 35° C | 59% | 1013.1 hPa | 0 mm | - | - | - |
| 1777712752 | 34.44° C | 60% | 1013.1 hPa | 0 mm | - | - | - |
| 1777712053 | 34.44° C | 61% | 1013.2 hPa | 0 mm | - | - | - |
| 1777710784 | 35.56° C | 58% | 1013.1 hPa | 0 mm | - | - | - |
| 1777710184 | 35° C | 61% | 1013.1 hPa | 0 mm | - | - | - |
| 1777709584 | 35.56° C | 57% | 1013.2 hPa | 0 mm | - | - | - |
| 1777708984 | 35.56° C | 56% | 1013.2 hPa | 0 mm | - | - | - |
| 1777708384 | 35.56° C | 56% | 1013.1 hPa | 0 mm | - | - | - |
| 1777707783 | 36.11° C | 56% | 1013.2 hPa | 0 mm | - | - | - |
| 1777706235 | 36.11° C | 54% | 1013.2 hPa | 0 mm | - | - | - |
| 1777705635 | 36.11° C | 56% | 1013.2 hPa | 0 mm | - | - | - |
| 1777705032 | 35.56° C | 57% | 1013.1 hPa | 0 mm | - | - | - |
| 1777704430 | 36.11° C | 56% | 1013.1 hPa | 0 mm | - | - | - |
* Rain latest hour (hover to see other rain measurements)
** Current wind speed in m/s (hover to see current wind gust speed)